Time;durP1;ratioP1;P1;durP2;ratioP2;P2;SDS_P1;SDS_P2;PMS_P1;PMS_P2;Temp;Humidity;BMP_temperature;BMP_pressure;BME280_temperature;BME280_humidity;BME280_pressure;Samples;Min_cycle;Max_cycle;Signal;HPM_P1;HPM_P2
2023/08/25 00:01:06;;;;;;;5.33;3.60;;;21.20;99.90;;;;;;5092018;28;20273;-53
2023/08/25 00:03:33;;;;;;;3.93;3.57;;;21.30;99.90;;;;;;5092141;28;20204;-53
2023/08/25 00:06:00;;;;;;;4.30;3.73;;;21.30;99.90;;;;;;5088180;28;20658;-53
2023/08/25 00:08:27;;;;;;;5.40;2.87;;;21.30;99.90;;;;;;5090721;28;20193;-53
2023/08/25 00:10:55;;;;;;;8.07;3.77;;;21.40;99.90;;;;;;5091598;28;20658;-53
2023/08/25 00:13:22;;;;;;;4.93;3.03;;;21.30;99.90;;;;;;5091017;28;20196;-53
2023/08/25 00:15:50;;;;;;;3.37;2.23;;;21.30;99.90;;;;;;5084930;28;20216;-53
2023/08/25 00:18:17;;;;;;;5.67;3.17;;;21.30;99.90;;;;;;5089391;28;20196;-54
2023/08/25 00:20:44;;;;;;;4.37;2.63;;;21.20;99.90;;;;;;5092580;28;20246;-54
2023/08/25 00:23:12;;;;;;;4.07;3.30;;;21.20;99.90;;;;;;5091236;28;20200;-53
2023/08/25 00:25:39;;;;;;;7.97;3.00;;;21.20;99.90;;;;;;5090675;28;20269;-53
2023/08/25 00:28:07;;;;;;;3.50;2.53;;;21.30;99.90;;;;;;5093028;28;20196;-53
2023/08/25 00:30:34;;;;;;;3.13;2.87;;;21.30;99.90;;;;;;5092208;28;20678;-53
2023/08/25 00:33:01;;;;;;;5.70;2.63;;;21.30;99.90;;;;;;5088693;28;20280;-53
2023/08/25 00:35:28;;;;;;;6.33;2.90;;;21.40;99.90;;;;;;5092616;28;20220;-54
2023/08/25 00:37:55;;;;;;;4.10;2.80;;;21.40;99.90;;;;;;5092900;28;20204;-53
2023/08/25 00:40:22;;;;;;;5.37;3.20;;;21.40;99.90;;;;;;5092785;28;20205;-53
2023/08/25 00:42:49;;;;;;;3.43;3.17;;;21.40;99.90;;;;;;5089767;28;20727;-53
2023/08/25 00:45:17;;;;;;;5.97;2.93;;;21.30;99.90;;;;;;5083562;28;20200;-54
2023/08/25 00:47:44;;;;;;;8.23;3.10;;;21.40;99.90;;;;;;5090736;28;20204;-53
2023/08/25 00:50:12;;;;;;;8.50;3.77;;;21.30;99.90;;;;;;5090515;28;20201;-53
2023/08/25 00:52:40;;;;;;;2.97;1.87;;;21.30;99.90;;;;;;5090599;28;20209;-53
2023/08/25 00:55:08;;;;;;;6.17;2.87;;;21.40;99.90;;;;;;5090960;28;20704;-53
2023/08/25 00:57:36;;;;;;;4.77;3.70;;;21.30;99.90;;;;;;5092272;28;20289;-53
2023/08/25 01:00:04;;;;;;;8.33;3.40;;;21.20;99.90;;;;;;5090317;28;20662;-53
2023/08/25 01:02:32;;;;;;;7.93;3.90;;;21.10;99.90;;;;;;5083047;28;20209;-53
2023/08/25 01:04:59;;;;;;;8.43;4.17;;;21.00;99.90;;;;;;5087135;28;20263;-53
2023/08/25 01:07:27;;;;;;;8.80;4.13;;;21.00;99.90;;;;;;5076736;28;20220;-53
2023/08/25 01:09:55;;;;;;;12.50;4.57;;;20.90;99.90;;;;;;5092348;28;20205;-53
2023/08/25 01:12:33;;;;;;;8.87;4.27;;;20.80;99.90;;;;;;5081638;28;20250;-53
2023/08/25 01:15:07;;;;;;;8.30;4.23;;;20.80;99.90;;;;;;5091124;28;20277;-53
2023/08/25 01:17:43;;;;;;;5.70;3.57;;;20.80;99.90;;;;;;5089804;28;20220;-53
2023/08/25 01:20:13;;;;;;;5.33;3.47;;;20.80;99.90;;;;;;5091144;28;20196;-53
2023/08/25 01:22:52;;;;;;;7.27;3.60;;;20.80;99.90;;;;;;5090540;28;20733;-53
2023/08/25 01:25:27;;;;;;;7.47;3.43;;;20.80;99.90;;;;;;5071644;28;20267;-53
2023/08/25 01:27:55;;;;;;;8.53;4.57;;;20.80;99.90;;;;;;5071654;28;20667;-53
2023/08/25 01:30:23;;;;;;;4.10;3.80;;;20.80;99.90;;;;;;5071642;28;20287;-53
2023/08/25 01:32:51;;;;;;;3.63;3.20;;;20.90;99.90;;;;;;5081093;28;20291;-54
2023/08/25 01:35:19;;;;;;;4.23;2.63;;;21.00;99.90;;;;;;5090053;28;20216;-54
2023/08/25 01:37:58;;;;;;;2.60;2.40;;;21.10;99.90;;;;;;5091884;28;20261;-53
2023/08/25 01:40:34;;;;;;;6.97;2.63;;;21.10;99.90;;;;;;5091696;28;20199;-53
2023/08/25 01:43:03;;;;;;;4.43;1.77;;;21.30;99.90;;;;;;5082723;28;20252;-53
2023/08/25 01:45:31;;;;;;;7.93;2.33;;;21.40;99.90;;;;;;5090878;28;20307;-53
2023/08/25 01:47:59;;;;;;;6.30;2.43;;;21.50;99.90;;;;;;5091531;28;20277;-54
2023/08/25 01:50:26;;;;;;;3.67;2.50;;;21.70;99.90;;;;;;5090692;28;20254;-53
2023/08/25 01:52:53;;;;;;;5.90;2.90;;;21.70;99.90;;;;;;5090607;28;20193;-54
2023/08/25 01:55:20;;;;;;;6.03;3.00;;;21.60;99.90;;;;;;5089168;28;20216;-54
2023/08/25 01:57:49;;;;;;;7.07;4.20;;;21.40;99.90;;;;;;5090507;28;20688;-54
2023/08/25 02:00:17;;;;;;;4.43;3.47;;;21.20;99.90;;;;;;5091224;28;20242;-54
2023/08/25 02:02:43;;;;;;;5.93;3.80;;;21.10;99.90;;;;;;5081992;28;20626;-54
2023/08/25 02:05:10;;;;;;;6.63;4.57;;;21.10;99.90;;;;;;5091342;28;20204;-54
2023/08/25 02:07:38;;;;;;;6.80;4.17;;;21.00;99.90;;;;;;5090610;28;20739;-54
2023/08/25 02:10:06;;;;;;;4.73;3.67;;;21.00;99.90;;;;;;5089947;28;20193;-54
2023/08/25 02:12:33;;;;;;;7.37;3.70;;;21.00;99.90;;;;;;5089478;28;20197;-54
2023/08/25 02:15:01;;;;;;;5.00;3.50;;;20.90;99.90;;;;;;5091180;28;20220;-54
2023/08/25 02:17:28;;;;;;;6.73;3.33;;;21.00;99.90;;;;;;5091099;28;20227;-54
2023/08/25 02:19:55;;;;;;;4.10;3.73;;;21.10;99.90;;;;;;5088589;28;20255;-53
2023/08/25 02:22:23;;;;;;;8.37;4.47;;;21.00;99.90;;;;;;5083645;28;20193;-54
2023/08/25 02:24:51;;;;;;;6.50;4.03;;;21.00;99.90;;;;;;5091099;28;20188;-53
2023/08/25 02:27:18;;;;;;;4.07;3.53;;;21.00;99.90;;;;;;5097677;28;20220;-53
2023/08/25 02:29:45;;;;;;;4.83;3.53;;;21.00;99.90;;;;;;5099310;28;20678;-54
2023/08/25 02:32:13;;;;;;;6.27;2.93;;;21.00;99.90;;;;;;5097310;28;20287;-53
2023/08/25 02:34:40;;;;;;;5.90;3.13;;;21.00;99.90;;;;;;5097026;28;20216;-53
2023/08/25 02:37:07;;;;;;;4.43;2.90;;;21.10;99.90;;;;;;5097446;28;20710;-53
2023/08/25 02:39:34;;;;;;;3.57;2.93;;;21.10;99.90;;;;;;5096527;28;20196;-54
2023/08/25 02:42:02;;;;;;;8.00;3.20;;;21.00;99.90;;;;;;5097562;28;20269;-53
2023/08/25 02:44:29;;;;;;;8.53;3.30;;;21.10;99.90;;;;;;5097285;28;20204;-54
2023/08/25 02:46:56;;;;;;;9.87;5.73;;;21.10;99.90;;;;;;5096540;28;20246;-54
2023/08/25 02:49:24;;;;;;;5.13;3.73;;;21.10;99.90;;;;;;5097438;28;20200;-54
2023/08/25 02:51:51;;;;;;;10.73;4.40;;;21.00;99.90;;;;;;5097546;28;20283;-53
2023/08/25 02:54:18;;;;;;;9.50;3.77;;;20.90;99.90;;;;;;5095832;28;20340;-54
2023/08/25 02:56:45;;;;;;;8.83;4.13;;;21.00;99.90;;;;;;5094188;28;20646;-53
2023/08/25 02:59:12;;;;;;;5.00;4.03;;;20.90;99.90;;;;;;5097436;28;20546;-54
2023/08/25 03:01:39;;;;;;;8.80;4.87;;;20.90;99.90;;;;;;5104329;28;20245;-53
2023/08/25 03:04:06;;;;;;;4.90;4.13;;;20.90;99.90;;;;;;5110027;28;20700;-54
2023/08/25 03:06:37;;;;;;;8.60;4.17;;;20.80;99.90;;;;;;5089708;28;20274;-53
2023/08/25 03:09:04;;;;;;;5.23;3.07;;;20.70;99.90;;;;;;5096439;28;20666;-53
2023/08/25 03:11:31;;;;;;;5.90;3.53;;;20.60;99.90;;;;;;5096557;28;20196;-54
2023/08/25 03:13:58;;;;;;;5.30;3.00;;;20.60;99.90;;;;;;5097129;28;20792;-54
2023/08/25 03:16:25;;;;;;;5.20;3.10;;;20.50;99.90;;;;;;5090751;28;20266;-54
2023/08/25 03:18:52;;;;;;;7.40;3.70;;;20.50;99.90;;;;;;5095337;28;20196;-53
2023/08/25 03:21:19;;;;;;;4.30;3.70;;;20.50;99.90;;;;;;5097480;28;20257;-54
2023/08/25 03:23:47;;;;;;;5.23;3.47;;;20.40;99.90;;;;;;5096611;28;20196;-54
2023/08/25 03:26:14;;;;;;;6.40;3.80;;;20.40;99.90;;;;;;5096574;28;20212;-53
2023/08/25 03:28:41;;;;;;;8.20;3.33;;;20.40;99.90;;;;;;5097521;28;20196;-54
2023/08/25 03:31:08;;;;;;;4.17;3.70;;;20.30;99.90;;;;;;5093788;28;20441;-53
2023/08/25 03:33:35;;;;;;;3.47;3.03;;;20.40;99.90;;;;;;5092175;28;20203;-54
2023/08/25 03:36:02;;;;;;;3.93;2.90;;;20.40;99.90;;;;;;5093615;28;20233;-54
2023/08/25 03:38:29;;;;;;;6.10;3.53;;;20.40;99.90;;;;;;5088072;28;20235;-54
2023/08/25 03:41:01;;;;;;;3.07;2.77;;;20.30;99.90;;;;;;5094386;28;20619;-53
2023/08/25 03:43:28;;;;;;;8.37;3.07;;;20.40;99.90;;;;;;5093034;28;20204;-53
2023/08/25 03:45:55;;;;;;;4.50;3.60;;;20.50;99.90;;;;;;5091860;28;20208;-54
2023/08/25 03:48:22;;;;;;;3.70;3.33;;;20.50;99.90;;;;;;5089125;28;20193;-54
2023/08/25 03:50:49;;;;;;;2.40;2.30;;;20.50;99.90;;;;;;5093676;28;20204;-55
2023/08/25 03:53:17;;;;;;;2.70;2.40;;;20.50;99.90;;;;;;5092252;28;20260;-54
2023/08/25 03:55:44;;;;;;;1.67;1.57;;;20.60;99.90;;;;;;5093191;28;20239;-55
2023/08/25 03:58:14;;;;;;;4.20;2.50;;;20.70;99.90;;;;;;5093774;28;20246;-54
2023/08/25 04:00:41;;;;;;;3.50;2.13;;;20.70;99.90;;;;;;5093857;28;20208;-55
2023/08/25 04:03:08;;;;;;;2.63;1.97;;;20.70;99.90;;;;;;5093051;28;20200;-54
2023/08/25 04:05:35;;;;;;;3.43;2.07;;;20.70;99.90;;;;;;5093309;28;20583;-54
2023/08/25 04:08:02;;;;;;;3.97;1.97;;;20.60;99.90;;;;;;5084218;28;20255;-54
2023/08/25 04:10:29;;;;;;;3.50;2.07;;;20.50;99.90;;;;;;5093421;28;20209;-55
2023/08/25 04:12:56;;;;;;;2.53;2.43;;;20.40;99.90;;;;;;5091873;28;20200;-55
2023/08/25 04:15:24;;;;;;;2.60;2.40;;;20.30;99.90;;;;;;5092447;28;20216;-55
2023/08/25 04:17:51;;;;;;;5.67;3.53;;;20.20;99.90;;;;;;5090953;28;20196;-55
2023/08/25 04:20:18;;;;;;;4.13;3.77;;;20.20;99.90;;;;;;5093345;28;20239;-55
2023/08/25 04:22:45;;;;;;;4.73;4.20;;;20.20;99.90;;;;;;5092765;28;20253;-55
2023/08/25 04:25:12;;;;;;;4.97;3.90;;;20.20;99.90;;;;;;5084202;28;20193;-55
2023/08/25 04:27:39;;;;;;;8.40;3.70;;;20.20;99.90;;;;;;5093174;28;20277;-55
2023/08/25 04:30:07;;;;;;;4.73;4.33;;;20.20;99.90;;;;;;5093048;28;20731;-55
2023/08/25 04:32:35;;;;;;;5.23;2.83;;;20.20;99.90;;;;;;5092642;28;20257;-55
2023/08/25 04:35:03;;;;;;;4.00;3.70;;;20.30;99.90;;;;;;5092023;28;20205;-56
2023/08/25 04:37:30;;;;;;;7.67;3.40;;;20.30;99.90;;;;;;5092815;28;20713;-55
2023/08/25 04:39:57;;;;;;;6.40;4.17;;;20.30;99.90;;;;;;5092940;28;20646;-55
2023/08/25 04:42:24;;;;;;;5.23;4.00;;;20.40;99.90;;;;;;5092195;28;20204;-55
2023/08/25 04:44:51;;;;;;;6.80;4.87;;;20.40;99.90;;;;;;5084127;28;20201;-55
2023/08/25 04:47:18;;;;;;;5.40;4.07;;;20.40;99.90;;;;;;5092739;28;20714;-55
2023/08/25 04:49:46;;;;;;;7.77;3.90;;;20.50;99.90;;;;;;5092470;28;20352;-55
2023/08/25 04:52:13;;;;;;;11.63;5.00;;;20.40;99.90;;;;;;5091941;28;20210;-55
2023/08/25 04:54:40;;;;;;;7.57;4.00;;;20.50;99.90;;;;;;5092898;28;20204;-55
2023/08/25 04:57:08;;;;;;;6.53;4.03;;;20.50;99.90;;;;;;5085066;28;20231;-55
2023/08/25 04:59:35;;;;;;;7.50;3.60;;;20.50;99.90;;;;;;5082317;28;20201;-55
2023/08/25 05:02:03;;;;;;;3.90;3.60;;;20.50;99.90;;;;;;5091817;28;20253;-55
2023/08/25 05:04:30;;;;;;;6.70;4.80;;;20.60;99.90;;;;;;5092264;28;20364;-55
2023/08/25 05:06:58;;;;;;;5.23;3.87;;;20.60;99.90;;;;;;5092192;28;20276;-55
2023/08/25 05:09:25;;;;;;;10.17;4.00;;;20.70;99.90;;;;;;5092327;28;20246;-55
2023/08/25 05:11:52;;;;;;;4.37;3.60;;;20.70;99.90;;;;;;5082137;28;20205;-55
2023/08/25 05:14:19;;;;;;;7.23;4.20;;;20.70;99.90;;;;;;5091729;28;20249;-55
2023/08/25 05:16:46;;;;;;;8.17;4.73;;;20.80;99.90;;;;;;5091741;28;20224;-56
2023/08/25 05:19:13;;;;;;;7.13;4.83;;;20.80;99.90;;;;;;5082362;28;20257;-55
2023/08/25 05:21:40;;;;;;;12.60;5.00;;;20.90;99.90;;;;;;5083549;28;20200;-55
2023/08/25 05:24:19;;;;;;;5.00;4.47;;;21.00;99.90;;;;;;5071458;28;20286;-55
2023/08/25 05:26:51;;;;;;;6.17;3.67;;;21.10;99.90;;;;;;5091409;28;20303;-54
2023/08/25 05:29:18;;;;;;;8.57;4.07;;;21.10;99.90;;;;;;5083446;28;20218;-54
2023/08/25 05:31:45;;;;;;;8.33;3.50;;;21.40;99.90;;;;;;5091938;28;20223;-54
2023/08/25 05:34:12;;;;;;;6.60;4.30;;;21.70;99.90;;;;;;5091122;28;20204;-55
2023/08/25 05:36:39;;;;;;;8.47;4.27;;;22.20;99.90;;;;;;5091956;28;20281;-55
2023/08/25 05:39:06;;;;;;;6.30;4.00;;;22.60;99.90;;;;;;5083200;28;20192;-55
2023/08/25 05:41:35;;;;;;;4.47;3.10;;;22.90;99.90;;;;;;5088534;28;20247;-54
2023/08/25 05:44:03;;;;;;;5.60;3.57;;;23.30;99.90;;;;;;5072737;28;20597;-55
2023/08/25 05:46:30;;;;;;;9.93;3.13;;;23.60;99.90;;;;;;5088631;28;20216;-55
2023/08/25 05:48:57;;;;;;;9.03;4.53;;;23.70;99.90;;;;;;5090627;28;20626;-55
2023/08/25 05:51:25;;;;;;;9.70;3.93;;;23.90;99.90;;;;;;5090166;28;20192;-55
2023/08/25 05:53:52;;;;;;;6.73;3.43;;;24.00;99.90;;;;;;5089762;28;20288;-55
2023/08/25 05:56:20;;;;;;;5.33;3.60;;;24.10;99.90;;;;;;5082949;28;20220;-55
2023/08/25 05:58:48;;;;;;;5.80;3.17;;;23.70;99.90;;;;;;5089784;28;20844;-55
2023/08/25 06:01:16;;;;;;;6.60;2.93;;;23.30;99.90;;;;;;5090830;28;20215;-55
2023/08/25 06:03:43;;;;;;;6.60;3.73;;;23.00;99.90;;;;;;5090488;28;20224;-55
2023/08/25 06:06:10;;;;;;;7.73;3.03;;;22.80;99.90;;;;;;5091269;28;20273;-56
2023/08/25 06:08:37;;;;;;;4.93;3.33;;;22.70;99.90;;;;;;5083520;28;20231;-55
2023/08/25 06:11:04;;;;;;;3.23;2.80;;;22.70;99.90;;;;;;5089236;28;20197;-55
2023/08/25 06:13:31;;;;;;;7.70;4.47;;;22.80;99.90;;;;;;5088559;28;20287;-55
2023/08/25 06:16:00;;;;;;;6.07;3.53;;;22.80;99.90;;;;;;5089277;28;20245;-55
2023/08/25 06:18:27;;;;;;;7.17;3.53;;;22.90;99.90;;;;;;5086490;28;20570;-55
2023/08/25 06:20:54;;;;;;;5.30;4.10;;;22.90;99.90;;;;;;5082295;28;20201;-55
2023/08/25 06:23:21;;;;;;;8.43;4.47;;;22.90;99.90;;;;;;5086988;28;20251;-55
2023/08/25 06:25:49;;;;;;;4.27;2.90;;;23.20;99.90;;;;;;5089778;28;20273;-55
2023/08/25 06:28:17;;;;;;;5.73;3.60;;;23.80;99.90;;;;;;5089995;28;20232;-55
2023/08/25 06:30:44;;;;;;;4.30;2.90;;;25.20;99.90;;;;;;5089244;28;20200;-56
2023/08/25 06:33:14;;;;;;;4.33;3.40;;;26.70;99.90;;;;;;5087182;28;20274;-55
2023/08/25 06:35:41;;;;;;;8.63;3.07;;;28.10;99.90;;;;;;5090822;28;20216;-55
2023/08/25 06:38:10;;;;;;;3.87;3.10;;;29.00;99.90;;;;;;5087336;28;20250;-55
2023/08/25 06:40:37;;;;;;;9.32;2.97;;;29.70;99.90;;;;;;5086904;28;20246;-55
2023/08/25 06:43:04;;;;;;;6.57;3.55;;;30.20;99.90;;;;;;5089425;28;20674;-55
2023/08/25 06:45:31;;;;;;;5.88;2.72;;;30.00;99.90;;;;;;5088985;28;20200;-55
2023/08/25 06:47:59;;;;;;;8.23;2.95;;;29.90;99.90;;;;;;5088446;28;20215;-55
2023/08/25 06:50:27;;;;;;;6.55;3.08;;;29.30;99.90;;;;;;5090519;28;20204;-55
2023/08/25 06:52:54;;;;;;;9.05;2.88;;;29.00;99.90;;;;;;5090052;28;20557;-55
2023/08/25 06:55:21;;;;;;;6.82;2.95;;;28.20;99.90;;;;;;5088550;28;20197;-55
2023/08/25 06:57:48;;;;;;;6.20;2.97;;;28.00;99.90;;;;;;5090137;28;20274;-55
2023/08/25 07:00:17;;;;;;;7.05;3.38;;;27.40;99.90;;;;;;5082363;28;20238;-55
2023/08/25 07:02:44;;;;;;;12.88;4.82;;;27.00;99.90;;;;;;5090264;28;20204;-55
2023/08/25 07:05:13;;;;;;;5.82;3.17;;;26.70;99.90;;;;;;5090975;28;20208;-56
2023/08/25 07:07:42;;;;;;;7.13;3.42;;;26.40;99.90;;;;;;5090367;28;20218;-55
2023/08/25 07:10:10;;;;;;;8.88;3.95;;;26.10;99.90;;;;;;5082681;28;20200;-55
2023/08/25 07:12:37;;;;;;;8.43;3.43;;;26.10;99.90;;;;;;5090840;28;20695;-55
2023/08/25 07:15:05;;;;;;;5.73;4.43;;;26.10;99.90;;;;;;5094474;28;20257;-55
2023/08/25 07:17:32;;;;;;;11.27;4.43;;;26.10;99.90;;;;;;5093944;28;20231;-55
2023/08/25 07:19:59;;;;;;;7.13;3.63;;;26.10;99.90;;;;;;5086115;28;20243;-55
2023/08/25 07:22:26;;;;;;;7.30;2.63;;;26.00;99.90;;;;;;5094047;28;20706;-55
2023/08/25 07:24:54;;;;;;;4.90;3.47;;;26.00;99.90;;;;;;5094400;28;20735;-55
2023/08/25 07:27:21;;;;;;;6.17;4.13;;;26.10;99.90;;;;;;5094619;28;20280;-56
2023/08/25 07:29:48;;;;;;;6.50;3.77;;;26.10;99.90;;;;;;5086224;28;20193;-55
2023/08/25 07:32:15;;;;;;;8.77;3.95;;;26.10;99.90;;;;;;5094076;28;20253;-56
2023/08/25 07:34:45;;;;;;;6.90;3.38;;;25.90;99.90;;;;;;5094397;28;20254;-55
2023/08/25 07:37:12;;;;;;;5.50;3.42;;;25.90;99.90;;;;;;5093549;28;20259;-55
2023/08/25 07:39:41;;;;;;;7.80;3.23;;;26.50;99.90;;;;;;5085826;28;20200;-54
2023/08/25 07:42:10;;;;;;;10.02;4.88;;;26.40;99.90;;;;;;5087841;28;20200;-56
2023/08/25 07:44:37;;;;;;;10.18;4.60;;;26.50;99.90;;;;;;5094096;28;20257;-56
2023/08/25 07:47:05;;;;;;;5.55;3.15;;;26.20;99.90;;;;;;5090619;28;20299;-55
2023/08/25 07:49:32;;;;;;;4.13;3.83;;;26.00;99.90;;;;;;5088222;28;20243;-56
2023/08/25 07:51:59;;;;;;;10.32;3.70;;;26.10;99.90;;;;;;5088767;28;20459;-55
2023/08/25 07:54:27;;;;;;;3.85;2.88;;;26.10;99.90;;;;;;5087239;28;20205;-55
2023/08/25 07:56:54;;;;;;;3.10;2.60;;;25.90;99.90;;;;;;5089606;28;20586;-55
2023/08/25 07:59:23;;;;;;;7.83;3.20;;;25.70;99.90;;;;;;5090196;28;20287;-56
2023/08/25 08:01:51;;;;;;;5.47;3.40;;;25.60;99.90;;;;;;5088205;28;20206;-55
2023/08/25 08:04:18;;;;;;;5.33;3.03;;;25.40;99.90;;;;;;5089714;28;20196;-56
2023/08/25 08:06:45;;;;;;;6.77;4.57;;;25.30;99.90;;;;;;5087671;28;20771;-56
2023/08/25 08:09:12;;;;;;;6.03;3.30;;;25.30;99.90;;;;;;5092300;28;20200;-55
2023/08/25 08:11:40;;;;;;;8.00;3.60;;;25.30;99.90;;;;;;5092772;28;20258;-55
2023/08/25 08:14:07;;;;;;;5.63;4.27;;;25.40;99.90;;;;;;5088350;28;20266;-55
2023/08/25 08:16:36;;;;;;;6.27;3.30;;;25.50;99.90;;;;;;5092642;28;20747;-55
2023/08/25 08:19:03;;;;;;;7.53;3.30;;;25.40;99.90;;;;;;5093113;28;20604;-55
2023/08/25 08:21:32;;;;;;;2.93;2.83;;;25.30;99.90;;;;;;5093000;28;20551;-55
2023/08/25 08:24:00;;;;;;;3.40;3.10;;;25.10;99.90;;;;;;5092210;28;20208;-55
2023/08/25 08:26:27;;;;;;;4.57;3.30;;;25.00;99.90;;;;;;5093039;28;20258;-55
2023/08/25 08:28:54;;;;;;;4.33;3.93;;;24.70;99.90;;;;;;5093086;28;20273;-55
2023/08/25 08:31:21;;;;;;;8.47;3.47;;;24.20;99.90;;;;;;5091149;28;20273;-55
2023/08/25 08:33:50;;;;;;;8.47;3.77;;;24.10;99.90;;;;;;5091063;28;20200;-55
2023/08/25 08:36:19;;;;;;;5.27;3.03;;;24.20;99.90;;;;;;5087223;28;20233;-60
2023/08/25 08:38:46;;;;;;;4.20;3.63;;;24.20;99.90;;;;;;5090938;28;20281;-60
2023/08/25 08:41:16;;;;;;;9.27;4.50;;;24.20;99.90;;;;;;5088692;28;20201;-56
2023/08/25 08:43:46;;;;;;;4.43;4.03;;;24.30;99.90;;;;;;5090532;28;20229;-56
2023/08/25 08:46:16;;;;;;;4.63;3.83;;;24.30;99.90;;;;;;5090432;28;20299;-61
2023/08/25 08:48:44;;;;;;;5.90;3.43;;;24.40;99.90;;;;;;5089021;28;20235;-56
2023/08/25 08:51:15;;;;;;;7.80;3.83;;;24.40;99.90;;;;;;5089910;28;20208;-56
2023/08/25 08:53:43;;;;;;;6.00;3.70;;;24.20;99.90;;;;;;5089752;28;20281;-56
2023/08/25 08:56:11;;;;;;;5.40;3.63;;;24.20;99.90;;;;;;5090255;28;20224;-56
2023/08/25 08:58:38;;;;;;;6.47;4.67;;;24.30;99.90;;;;;;5091469;28;20678;-57
2023/08/25 09:01:07;;;;;;;3.07;2.87;;;24.40;99.90;;;;;;5091844;28;20204;-56
2023/08/25 09:03:35;;;;;;;9.20;4.07;;;24.40;99.90;;;;;;5083783;28;20662;-56
2023/08/25 09:06:04;;;;;;;4.53;3.50;;;24.30;99.90;;;;;;5091650;28;22064;-57
2023/08/25 09:08:33;;;;;;;5.37;3.87;;;24.40;99.90;;;;;;5084021;28;20685;-56
2023/08/25 09:11:02;;;;;;;5.63;3.90;;;24.50;99.90;;;;;;5092581;28;20246;-56
2023/08/25 09:13:33;;;;;;;6.30;3.87;;;24.60;99.90;;;;;;5091666;28;20230;-56
2023/08/25 09:16:00;;;;;;;6.40;4.67;;;24.70;99.90;;;;;;5091808;28;20252;-56
2023/08/25 09:18:34;;;;;;;6.13;4.10;;;24.80;99.90;;;;;;5092578;28;20269;-56
2023/08/25 09:21:03;;;;;;;6.30;3.30;;;24.70;99.90;;;;;;5092455;28;20253;-56
2023/08/25 09:23:31;;;;;;;6.57;3.80;;;24.80;99.90;;;;;;5091451;28;20248;-56
2023/08/25 09:26:05;;;;;;;4.43;3.83;;;24.80;99.90;;;;;;5092085;28;20714;-56
2023/08/25 09:28:37;;;;;;;4.87;4.10;;;24.90;99.90;;;;;;5083411;28;20228;-56
2023/08/25 09:31:05;;;;;;;6.63;3.63;;;24.90;99.90;;;;;;5092190;28;20231;-56
2023/08/25 09:33:34;;;;;;;4.67;3.17;;;25.10;99.90;;;;;;5091264;28;20236;-56
2023/08/25 09:36:05;;;;;;;3.93;3.30;;;25.30;99.90;;;;;;5091285;28;20285;-56
2023/08/25 09:38:35;;;;;;;5.57;3.70;;;25.40;99.90;;;;;;5082967;28;20281;-56
2023/08/25 09:41:02;;;;;;;6.60;4.27;;;25.70;99.90;;;;;;5091764;28;20642;-56
2023/08/25 09:43:31;;;;;;;5.30;3.47;;;26.30;99.90;;;;;;5091143;28;20200;-57
2023/08/25 09:45:58;;;;;;;3.13;2.70;;;26.70;99.90;;;;;;5091784;28;20722;-57
2023/08/25 09:48:27;;;;;;;7.85;3.05;;;27.00;99.90;;;;;;5082017;28;20192;-57
2023/08/25 09:50:54;;;;;;;6.22;3.00;;;27.50;99.90;;;;;;5090759;28;20235;-56
2023/08/25 09:53:24;;;;;;;7.55;3.17;;;28.00;99.90;;;;;;5091257;28;20328;-57
2023/08/25 09:56:00;;;;;;;2.60;2.45;;;28.20;99.90;;;;;;5091669;28;20383;-57
2023/08/25 09:58:29;;;;;;;7.90;3.55;;;28.40;99.90;;;;;;5091379;28;20220;-56
2023/08/25 10:00:56;;;;;;;4.50;3.67;;;28.20;99.90;;;;;;5091793;28;20283;-56
2023/08/25 10:03:23;;;;;;;3.25;3.13;;;28.00;99.90;;;;;;5090695;28;20196;-56
2023/08/25 10:05:51;;;;;;;3.45;2.65;;;27.80;99.90;;;;;;5091563;28;20705;-56
2023/08/25 10:08:18;;;;;;;3.22;3.03;;;27.80;99.90;;;;;;5091829;28;20200;-57
2023/08/25 10:10:45;;;;;;;5.13;3.95;;;27.60;99.90;;;;;;5090825;28;20258;-56
2023/08/25 10:13:15;;;;;;;3.90;3.47;;;27.40;99.90;;;;;;5083188;28;20249;-56
2023/08/25 10:15:43;;;;;;;3.50;3.17;;;27.10;99.90;;;;;;5091474;28;20251;-56
2023/08/25 10:18:11;;;;;;;8.02;4.05;;;26.80;99.90;;;;;;5091462;28;20315;-57
2023/08/25 10:20:39;;;;;;;4.05;3.83;;;26.60;99.90;;;;;;5090875;28;20200;-56
2023/08/25 10:23:09;;;;;;;4.97;3.92;;;26.50;99.90;;;;;;5090682;28;20197;-55
2023/08/25 10:25:37;;;;;;;4.15;3.92;;;26.40;99.90;;;;;;5091659;28;20224;-56
2023/08/25 10:28:10;;;;;;;4.82;4.47;;;26.30;99.90;;;;;;5088219;28;20218;-56
2023/08/25 10:30:39;;;;;;;4.37;3.80;;;26.30;99.90;;;;;;5091090;28;20196;-56
2023/08/25 10:33:11;;;;;;;4.93;4.15;;;26.20;99.90;;;;;;5090632;28;20212;-56
2023/08/25 10:35:43;;;;;;;5.32;4.90;;;26.10;99.90;;;;;;5091102;28;20227;-56
2023/08/25 10:38:34;;;;;;;4.90;4.53;;;26.10;99.90;;;;;;5089786;28;20215;-56
2023/08/25 10:41:12;;;;;;;8.20;5.05;;;26.10;99.90;;;;;;5091206;28;20521;-58
2023/08/25 10:43:41;;;;;;;4.68;4.28;;;26.00;99.90;;;;;;5089491;28;20196;-55
2023/08/25 10:46:10;;;;;;;7.90;4.40;;;26.00;99.90;;;;;;5090566;28;20274;-55
2023/08/25 10:48:38;;;;;;;4.70;3.97;;;25.90;99.90;;;;;;5089600;28;20200;-55
2023/08/25 10:51:09;;;;;;;4.35;3.78;;;26.00;99.90;;;;;;5093644;28;20223;-56
2023/08/25 10:53:38;;;;;;;6.78;3.88;;;26.00;99.90;;;;;;5094314;28;20678;-55
2023/08/25 10:56:22;;;;;;;4.97;4.22;;;26.10;99.90;;;;;;5094043;28;20704;-55
2023/08/25 10:59:03;;;;;;;6.22;4.20;;;26.20;99.90;;;;;;5092185;28;20558;-55
2023/08/25 11:01:55;;;;;;;5.10;4.60;;;26.10;99.90;;;;;;5094793;28;20235;-59
2023/08/25 11:04:24;;;;;;;4.15;3.90;;;26.00;99.90;;;;;;5094103;28;20292;-54
2023/08/25 11:06:52;;;;;;;4.50;3.92;;;26.00;99.90;;;;;;5094401;28;20220;-54
2023/08/25 11:09:35;;;;;;;5.45;3.95;;;25.90;99.90;;;;;;5094538;28;20704;-54
2023/08/25 11:12:06;;;;;;;4.67;4.10;;;25.90;99.90;;;;;;5094650;28;20200;-55
2023/08/25 11:14:35;;;;;;;4.22;3.70;;;25.90;99.90;;;;;;5094589;28;20200;-54
2023/08/25 11:17:05;;;;;;;5.57;4.10;;;25.80;99.90;;;;;;5091227;28;20255;-54
2023/08/25 11:19:33;;;;;;;5.63;4.07;;;25.80;99.90;;;;;;5092200;28;20196;-54
2023/08/25 11:22:01;;;;;;;4.10;3.63;;;25.80;99.90;;;;;;5094394;28;20283;-55
2023/08/25 11:24:30;;;;;;;6.75;3.97;;;25.80;99.90;;;;;;5093806;28;20726;-60
2023/08/25 11:27:03;;;;;;;4.20;3.83;;;25.70;99.90;;;;;;5091948;28;20220;-63
2023/08/25 11:29:31;;;;;;;4.47;4.15;;;25.80;99.90;;;;;;5088786;28;20216;-59
2023/08/25 11:31:58;;;;;;;4.35;3.97;;;25.80;99.90;;;;;;5094321;28;20712;-60
2023/08/25 11:34:29;;;;;;;5.28;3.67;;;25.80;99.90;;;;;;5093804;28;20200;-64
2023/08/25 11:36:56;;;;;;;7.03;4.80;;;25.90;99.90;;;;;;5091724;28;20282;-57
2023/08/25 11:39:23;;;;;;;4.43;3.80;;;26.10;99.90;;;;;;5087693;28;20221;-54
2023/08/25 11:41:53;;;;;;;4.47;4.07;;;26.30;99.90;;;;;;5093152;28;20220;-54
2023/08/25 11:44:20;;;;;;;5.15;4.18;;;26.50;99.90;;;;;;5093208;28;20201;-54
2023/08/25 11:46:47;;;;;;;3.55;3.20;;;26.70;99.90;;;;;;5092974;28;20216;-54
2023/08/25 11:49:14;;;;;;;4.75;4.35;;;27.00;99.90;;;;;;5078821;28;20192;-54
2023/08/25 11:51:43;;;;;;;5.50;4.70;;;27.20;99.90;;;;;;5092845;28;20246;-53
2023/08/25 11:54:10;;;;;;;3.95;3.67;;;27.40;99.90;;;;;;5092585;28;20262;-54
2023/08/25 11:56:37;;;;;;;4.85;4.55;;;27.40;99.90;;;;;;5093387;28;20258;-54
2023/08/25 11:59:04;;;;;;;5.63;4.43;;;27.50;99.90;;;;;;5092779;28;20794;-54
2023/08/25 12:01:32;;;;;;;4.60;4.20;;;27.50;99.90;;;;;;5093748;28;20254;-54
2023/08/25 12:04:00;;;;;;;4.30;4.00;;;27.50;99.90;;;;;;5092035;28;20279;-54
2023/08/25 12:06:27;;;;;;;5.03;4.65;;;27.40;99.90;;;;;;5092602;28;20303;-54
2023/08/25 12:08:55;;;;;;;4.25;3.95;;;27.50;99.90;;;;;;5092180;28;20564;-53
2023/08/25 12:11:22;;;;;;;5.55;5.10;;;27.60;99.90;;;;;;5093094;28;20222;-54
2023/08/25 12:13:49;;;;;;;5.35;4.68;;;27.50;99.90;;;;;;5092369;28;20620;-53
2023/08/25 12:16:19;;;;;;;5.65;4.82;;;27.50;99.90;;;;;;5091856;28;20299;-54
2023/08/25 12:18:52;;;;;;;4.72;4.38;;;27.60;99.90;;;;;;5087364;28;20643;-54
2023/08/25 12:21:19;;;;;;;6.40;4.90;;;27.50;99.90;;;;;;5092435;28;20287;-54
2023/08/25 12:23:46;;;;;;;5.05;4.75;;;27.50;99.90;;;;;;5091703;28;20279;-54
2023/08/25 12:26:15;;;;;;;5.50;5.10;;;27.40;99.90;;;;;;5092913;28;20702;-54
2023/08/25 12:28:43;;;;;;;5.43;4.60;;;27.50;99.90;;;;;;5083404;28;20755;-54
2023/08/25 12:31:10;;;;;;;5.30;4.90;;;27.60;99.90;;;;;;5092972;28;20736;-54
2023/08/25 12:33:37;;;;;;;6.82;4.78;;;27.80;99.90;;;;;;5091573;28;20282;-54
2023/08/25 12:36:04;;;;;;;7.00;5.00;;;27.70;99.90;;;;;;5092236;28;20765;-54
2023/08/25 12:38:33;;;;;;;5.60;4.65;;;27.70;99.90;;;;;;5085765;28;20221;-54
2023/08/25 12:41:00;;;;;;;4.72;4.32;;;27.80;99.90;;;;;;5091885;28;20615;-54
2023/08/25 12:43:29;;;;;;;5.85;4.82;;;27.90;99.90;;;;;;5091241;28;20279;-53
2023/08/25 12:45:57;;;;;;;5.40;4.90;;;27.80;99.90;;;;;;5092777;28;20299;-63
2023/08/25 12:48:24;;;;;;;5.55;5.07;;;27.60;99.90;;;;;;5091313;28;20275;-64
2023/08/25 12:50:51;;;;;;;5.47;5.07;;;27.60;99.90;;;;;;5084082;28;20253;-56